FW2284 Weather Reports


Display with metric or nautical units.
time (UTC)temp
F
wind
direction
speed
MPH
gust
MPH
rain 1hr
in
rain 24hr
in
rain mn
in
humidity
%
barometer
mb
20240623181528 86 6 7.0 12.0 0.00 0.03 0.03 54 1011.2
20240623180008 85 345 3.0 9.0 0.00 0.03 0.03 58 1011.3
20240623174503 85 309 3.0 9.0 0.00 0.03 0.03 59 1011.3
20240623173002 85 328 5.0 13.0 0.00 0.03 0.03 59 1011.5
20240623171600 84 335 3.0 8.0 0.00 0.03 0.03 60 1011.4
20240623170059 83 308 4.0 12.0 0.00 0.03 0.03 62 1011.4
20240623164556 83 30 3.0 8.0 0.00 0.03 0.03 64 1011.3
20240623163100 84 351 3.0 9.0 0.00 0.03 0.03 62 1011.3
20240623161557 83 326 5.0 13.0 0.00 0.03 0.03 65 1011.3
20240623160053 83 323 4.0 9.0 0.00 0.03 0.03 66 1011.2
20240623154548 82 318 6.0 10.0 0.00 0.03 0.03 66 1011.2
20240623153048 82 20 2.0 7.0 0.00 0.03 0.03 69 1011.0
20240623151553 80 329 4.0 10.0 0.00 0.03 0.03 72 1011.1
20240623150046 79 9 5.0 15.0 0.00 0.03 0.03 74 1010.9
20240623144550 78 350 7.0 17.0 0.00 0.03 0.03 75 1010.7
20240623143044 78 334 4.0 11.0 0.00 0.03 0.03 77 1010.7
20240623141544 78 338 4.0 11.0 0.00 0.03 0.03 77 1010.7
20240623140041 78 341 6.0 11.0 0.00 0.03 0.03 77 1010.5
20240623134539 79 315 6.0 12.0 0.00 0.03 0.03 76 1010.3
20240623133037 78 345 5.0 13.0 0.00 0.03 0.03 76 1010.1
20240623131559 78 335 7.0 13.0 0.00 0.03 0.03 78 1010.0
20240623130034 77 335 5.0 9.0 0.00 0.03 0.03 81 1009.8
20240623124533 77 331 6.0 13.0 0.00 0.03 0.03 81 1009.7
20240623123046 77 340 6.0 9.0 0.00 0.03 0.03 82 1009.4
20240623121537 77 333 4.0 7.0 0.00 0.03 0.03 83 1009.2
20240623120033 77 333 5.0 9.0 0.00 0.03 0.03 83 1009.2
20240623114600 77 9 5.0 15.0 0.00 0.03 0.03 81 1009.0
20240623113021 78 7 6.0 13.0 0.00 0.03 0.03 80 1008.6
20240623111520 79 311 6.0 11.0 0.00 0.03 0.03 76 1008.4
20240623110020 78 306 1.0 4.0 0.00 0.03 0.03 76 1008.2
20240623104527 78 297 1.0 6.0 0.00 0.03 0.03 75 1008.0
20240623103022 79 279 4.0 7.0 0.00 0.03 0.03 75 1007.9
20240623101522 79 300 2.0 12.0 0.00 0.03 0.03 74 1007.7
20240623100016 79 252 3.0 10.0 0.00 0.03 0.03 74 1007.7
20240623094514 79 291 3.0 9.0 0.00 0.03 0.03 74 1007.7
20240623093013 78 270 2.0 8.0 0.00 0.03 0.03 75 1007.8
20240623091512 77 248 2.0 7.0 0.00 0.03 0.03 77 1007.8
20240623090012 75 205 0.0 2.0 0.00 0.03 0.03 82 1008.0
20240623084508 76 153 0.0 1.0 0.00 0.03 0.03 81 1008.3
20240623083011 77 295 0.0 1.0 0.00 0.03 0.03 77 1008.3
20240623081507 78 295 0.0 3.0 0.00 0.03 0.03 76 1008.4
20240623080007 77 259 2.0 5.0 0.00 0.03 0.03 77 1008.4
20240623074505 77 212 1.0 7.0 0.00 0.03 0.03 78 1008.0
20240623073011 76 207 3.0 8.0 0.03 0.03 0.03 79 1008.2
20240623071503 76 211 2.0 5.0 0.03 0.03 0.03 79 1008.2
20240623070114 77 248 1.0 6.0 0.03 0.03 0.03 77 1008.2
20240623064556 81 172 4.0 10.0 0.03 0.03 0.03 70 1008.5
20240623063052 81 216 2.0 9.0 0.00 0.00 0.00 67 1008.6
20240623061548 81 230 2.0 8.0 0.00 0.00 0.00 68 1008.7
20240623060056 80 227 1.0 6.0 0.00 0.00 0.00 68 1008.9
20240623054546 80 174 2.0 6.0 0.00 0.00 0.00 69 1009.0
20240623053044 80 181 3.0 9.0 0.00 0.00 0.00 69 1009.1
20240623051542 80 173 2.0 7.0 0.00 0.00 0.00 69 1008.9
20240623050040 81 253 3.0 7.0 0.00 0.00 0.00 68 1008.7
20240623044539 81 251 4.0 10.0 0.00 0.00 0.00 68 1008.7
20240623043038 81 232 5.0 11.0 0.00 0.00 0.00 68 1008.8
20240623041536 82 181 3.0 11.0 0.00 0.00 0.00 68 1009.0
20240623040038 82 200 4.0 9.0 0.00 0.00 0.00 68 1009.1
20240623034535 82 223 4.0 9.0 0.00 0.00 0.00 68 1009.3
20240623033044 82 171 3.0 8.0 0.00 0.00 0.00 67 1009.2
20240623031636 82 216 4.0 7.0 0.00 0.00 0.00 67 1009.3
20240623030045 83 164 4.0 10.0 0.00 0.00 0.00 67 1009.2
20240623024532 83 169 4.0 9.0 0.00 0.00 0.00 66 1009.3
20240623023031 83 201 4.0 12.0 0.00 0.00 0.00 66 1009.4
20240623021531 84 195 4.0 9.0 0.00 0.00 0.00 66 1009.6
20240623020030 84 181 3.0 9.0 0.00 0.00 0.00 65 1009.5
20240623014541 84 158 3.0 8.0 0.00 0.00 0.00 64 1009.1
20240623013027 85 190 4.0 9.0 0.00 0.00 0.00 63 1009.5
20240623011527 86 245 2.0 5.0 0.00 0.00 0.00 61 1009.8
20240623010025 87 172 3.0 8.0 0.00 0.00 0.00 60 1009.8
20240623004532 88 120 1.0 10.0 0.00 0.00 0.00 59 1009.8
20240623003027 89 188 3.0 13.0 0.00 0.00 0.00 58 1009.8
20240623001523 89 205 4.0 10.0 0.00 0.00 0.00 58 1009.7
20240623000019 89 197 2.0 8.0 0.00 0.00 0.00 58 1010.0
20240622234521 90 217 3.0 11.0 0.00 0.00 0.00 57 1010.2
20240622233016 90 221 3.0 9.0 0.00 0.00 0.00 56 1010.4
20240622231518 90 257 3.0 8.0 0.00 0.00 0.00 57 1010.6
20240622230013 90 189 5.0 13.0 0.00 0.00 0.00 57 1010.7
20240622224510 89 237 3.0 9.0 0.00 0.00 0.00 58 1010.8
20240622223009 90 252 5.0 13.0 0.00 0.00 0.00 56 1011.0
20240622221508 91 225 2.0 10.0 0.00 0.00 0.00 58 1011.0
20240622220005 89 225 4.0 10.0 0.00 0.00 0.00 57 1011.1
20240622214507 90 222 4.0 9.0 0.00 0.00 0.00 57 1011.2
20240622213008 90 209 3.0 10.0 0.00 0.00 0.00 58 1011.2
20240622211502 90 188 4.0 11.0 0.00 0.00 0.00 57 1011.5
20240622210001 91 256 6.0 13.0 0.00 0.00 0.00 55 1011.6
20240622204558 91 253 5.0 11.0 0.00 0.00 0.00 56 1011.8
20240622203056 90 204 3.0 9.0 0.00 0.00 0.00 57 1012.1
20240622201555 88 229 5.0 8.0 0.00 0.00 0.00 58 1012.1
20240622200054 90 188 4.0 11.0 0.00 0.00 0.00 56 1012.2
20240622194558 90 273 4.0 13.0 0.00 0.00 0.00 55 1012.4
20240622193050 90 163 3.0 13.0 0.00 0.00 0.00 56 1012.5
20240622191554 90 274 3.0 12.0 0.00 0.00 0.00 55 1012.5
20240622190053 89 278 5.0 14.0 0.00 0.00 0.00 57 1012.7
20240622184545 89 153 4.0 9.0 0.00 0.00 0.00 57 1012.7
20240622183042 89 214 6.0 11.0 0.00 0.00 0.00 56 1013.0